createdAt,value
2023-05-06T00:01:05.575Z,18.08
2023-05-06T00:03:35.307Z,17.97
2023-05-06T00:06:06.809Z,17.83
2023-05-06T00:08:36.732Z,17.70
2023-05-06T00:11:06.115Z,17.64
2023-05-06T00:13:37.248Z,17.55
2023-05-06T00:16:07.584Z,17.44
2023-05-06T00:18:37.182Z,17.33
2023-05-06T00:21:07.452Z,17.22
2023-05-06T00:23:36.914Z,17.11
2023-05-06T00:26:07.441Z,17.00
2023-05-06T00:28:37.081Z,16.93
2023-05-06T00:31:06.824Z,16.88
2023-05-06T00:33:36.966Z,16.82
2023-05-06T00:36:07.386Z,16.80
2023-05-06T00:38:37.162Z,16.75
2023-05-06T00:41:07.844Z,16.67
2023-05-06T00:43:37.983Z,16.64
2023-05-06T00:46:09.671Z,16.59
2023-05-06T00:48:40.197Z,16.53
2023-05-06T00:51:10.070Z,16.51
2023-05-06T00:53:40.064Z,16.49
2023-05-06T00:56:09.893Z,16.44
2023-05-06T00:58:41.049Z,16.40
2023-05-06T01:01:10.963Z,16.40
2023-05-06T01:03:40.760Z,16.38
2023-05-06T01:06:18.264Z,16.31
2023-05-06T01:08:57.654Z,16.28
2023-05-06T01:11:37.387Z,16.26
2023-05-06T01:14:13.971Z,16.26
2023-05-06T01:16:44.087Z,16.26
2023-05-06T01:19:34.881Z,16.22
2023-05-06T01:22:06.978Z,16.16
2023-05-06T01:24:37.714Z,16.14
2023-05-06T01:27:12.598Z,16.10
2023-05-06T01:29:47.778Z,16.08
2023-05-06T01:32:41.495Z,16.09
2023-05-06T01:35:22.203Z,16.05
2023-05-06T01:38:13.675Z,16.07
2023-05-06T01:40:44.518Z,16.02
2023-05-06T01:43:18.090Z,15.93
2023-05-06T01:45:54.385Z,15.84
2023-05-06T01:48:26.610Z,15.82
2023-05-06T01:50:56.109Z,15.80
2023-05-06T01:53:25.815Z,15.76
2023-05-06T01:55:56.549Z,15.73
2023-05-06T01:58:26.388Z,15.74
2023-05-06T02:00:55.657Z,15.74
2023-05-06T02:03:25.298Z,15.70
2023-05-06T02:05:55.044Z,15.68
2023-05-06T02:08:24.871Z,15.66
2023-05-06T02:10:54.409Z,15.64
2023-05-06T02:13:23.956Z,15.63
2023-05-06T02:15:55.146Z,15.57
2023-05-06T02:18:25.334Z,15.56
2023-05-06T02:20:54.511Z,15.57
2023-05-06T02:23:24.948Z,15.54
2023-05-06T02:25:54.286Z,15.47
2023-05-06T02:28:23.703Z,15.41
2023-05-06T02:30:57.232Z,15.37
2023-05-06T02:33:26.684Z,15.35
2023-05-06T02:35:56.532Z,15.35
2023-05-06T02:38:26.444Z,15.39
2023-05-06T02:40:55.730Z,15.40
2023-05-06T02:43:25.532Z,15.40
2023-05-06T02:45:56.679Z,15.37
2023-05-06T02:48:26.535Z,15.35
2023-05-06T02:50:56.247Z,15.30
2023-05-06T02:53:26.155Z,15.25
2023-05-06T02:55:55.648Z,15.24
2023-05-06T02:58:25.839Z,15.22
2023-05-06T03:00:55.199Z,15.21
2023-05-06T03:03:24.516Z,15.22
2023-05-06T03:05:54.565Z,15.21
2023-05-06T03:08:24.455Z,15.23
2023-05-06T03:10:54.295Z,15.21
2023-05-06T03:13:24.559Z,15.20
2023-05-06T03:15:54.445Z,15.19
2023-05-06T03:18:24.421Z,15.14
2023-05-06T03:20:53.515Z,15.12
2023-05-06T03:23:23.592Z,15.08
2023-05-06T03:25:53.499Z,15.09
2023-05-06T03:28:22.780Z,15.13
2023-05-06T03:30:52.193Z,15.09
2023-05-06T03:33:22.612Z,15.08
2023-05-06T03:35:52.541Z,15.06
2023-05-06T03:38:22.413Z,15.04
2023-05-06T03:40:51.904Z,15.02
2023-05-06T03:43:22.234Z,15.04
2023-05-06T03:45:54.325Z,15.04
2023-05-06T03:48:24.585Z,15.05
2023-05-06T03:50:54.481Z,15.09
2023-05-06T03:53:24.898Z,15.11
2023-05-06T03:55:59.512Z,15.18
2023-05-06T03:58:30.762Z,15.19
2023-05-06T04:01:08.169Z,15.21
2023-05-06T04:04:08.232Z,15.25
2023-05-06T04:07:18.177Z,15.34
2023-05-06T04:10:13.299Z,15.34
2023-05-06T04:12:45.054Z,15.32
2023-05-06T04:15:16.100Z,15.35
2023-05-06T04:17:45.552Z,15.39
2023-05-06T04:20:16.479Z,15.44
2023-05-06T04:22:50.563Z,15.49
2023-05-06T04:25:20.796Z,15.50
2023-05-06T04:27:51.500Z,15.53
2023-05-06T04:30:22.377Z,15.61
2023-05-06T04:32:51.733Z,15.63
2023-05-06T04:35:23.181Z,15.66
2023-05-06T04:37:54.843Z,15.73
2023-05-06T04:40:25.990Z,15.82
2023-05-06T04:42:55.571Z,15.91
2023-05-06T04:45:25.838Z,15.98
2023-05-06T04:47:55.692Z,16.05
2023-05-06T04:50:32.169Z,16.13
2023-05-06T04:53:10.855Z,16.21
2023-05-06T04:55:40.762Z,16.29
2023-05-06T04:58:10.708Z,16.34
2023-05-06T05:04:15.424Z,16.40
2023-05-06T05:04:44.582Z,16.46
2023-05-06T05:07:16.238Z,16.56
2023-05-06T05:09:45.401Z,16.78
2023-05-06T05:12:14.630Z,16.97
2023-05-06T05:14:44.155Z,17.13
2023-05-06T05:17:15.240Z,17.28
2023-05-06T05:19:59.087Z,17.41
2023-05-06T05:22:30.701Z,17.41
2023-05-06T05:25:02.596Z,17.38
2023-05-06T05:27:32.508Z,17.36
2023-05-06T05:30:08.609Z,17.36
2023-05-06T05:33:04.843Z,17.37
2023-05-06T05:35:41.826Z,17.36
2023-05-06T05:38:29.717Z,17.37
2023-05-06T05:41:00.194Z,17.38
2023-05-06T05:43:33.139Z,17.41
2023-05-06T05:46:19.436Z,17.43
2023-05-06T05:48:54.208Z,17.43
2023-05-06T05:51:26.110Z,17.44
2023-05-06T05:53:56.190Z,17.46
2023-05-06T05:56:27.112Z,17.50
2023-05-06T05:59:16.131Z,17.55
2023-05-06T06:02:20.644Z,17.60
2023-05-06T06:05:13.204Z,17.66
2023-05-06T06:08:41.892Z,17.72
2023-05-06T06:11:24.966Z,17.76
2023-05-06T06:14:24.490Z,17.80
2023-05-06T06:17:02.878Z,17.84
2023-05-06T06:19:41.855Z,17.87
2023-05-06T06:22:49.145Z,17.90
2023-05-06T06:25:45.034Z,17.96
2023-05-06T06:28:17.919Z,18.04
2023-05-06T06:30:52.017Z,18.10
2023-05-06T06:33:23.381Z,18.13
2023-05-06T06:35:59.242Z,18.18
2023-05-06T06:38:42.358Z,18.20
2023-05-06T06:41:52.408Z,18.21
2023-05-06T06:45:01.343Z,18.20
2023-05-06T06:47:41.937Z,18.21
2023-05-06T06:50:26.474Z,18.23
2023-05-06T06:53:07.086Z,18.27
2023-05-06T06:57:13.231Z,18.29
2023-05-06T06:59:24.525Z,18.35
2023-05-06T07:02:03.036Z,18.38
2023-05-06T07:04:43.828Z,18.44
2023-05-06T07:07:53.056Z,18.49
2023-05-06T07:11:19.050Z,18.59
2023-05-06T07:20:02.236Z,18.72
2023-05-06T07:21:59.479Z,18.79
2023-05-06T07:44:50.169Z,19.54
2023-05-06T07:47:40.176Z,19.84
2023-05-06T07:50:17.762Z,19.87
2023-05-06T07:52:47.151Z,19.86
2023-05-06T07:55:17.649Z,19.92
2023-05-06T07:57:52.582Z,20.00
2023-05-06T08:01:39.439Z,20.08
2023-05-06T08:05:53.728Z,20.10
2023-05-06T08:07:17.384Z,20.11
2023-05-06T08:11:01.032Z,20.14
2023-05-06T08:18:29.083Z,20.16
2023-05-06T08:26:18.324Z,20.16
2023-05-06T08:45:00.062Z,20.29
2023-05-06T08:47:56.010Z,20.32
2023-05-06T08:51:20.807Z,20.39
2023-05-06T08:54:52.561Z,20.48
2023-05-06T08:57:59.650Z,20.53
2023-05-06T09:00:59.021Z,20.52
2023-05-06T09:03:56.875Z,20.55
2023-05-06T09:07:17.417Z,20.61
2023-05-06T09:10:03.543Z,20.65
2023-05-06T09:13:24.349Z,20.72
2023-05-06T09:16:43.937Z,20.79
2023-05-06T09:19:34.350Z,20.87
2023-05-06T09:22:32.198Z,20.96
2023-05-06T09:25:50.753Z,20.97
2023-05-06T09:28:34.292Z,21.05
2023-05-06T09:31:54.035Z,21.13
2023-05-06T09:35:06.776Z,21.14
2023-05-06T09:38:17.074Z,21.10
2023-05-06T09:41:14.789Z,21.09
2023-05-06T09:44:10.245Z,21.15
2023-05-06T09:47:21.878Z,21.14
2023-05-06T09:50:57.131Z,21.17
2023-05-06T09:54:28.113Z,21.24
2023-05-06T09:57:14.585Z,21.28
2023-05-06T10:00:12.626Z,21.24
2023-05-06T10:02:59.412Z,21.18
2023-05-06T10:06:11.201Z,21.19
2023-05-06T10:09:18.502Z,21.20
2023-05-06T10:12:28.570Z,21.22
2023-05-06T10:15:18.183Z,21.26
2023-05-06T10:18:17.289Z,21.26
2023-05-06T10:21:15.724Z,21.29
2023-05-06T10:28:22.987Z,21.44
2023-05-06T10:31:14.377Z,21.51
2023-05-06T10:33:51.165Z,21.53
2023-05-06T10:36:27.328Z,21.57
2023-05-06T10:39:05.034Z,21.61
2023-05-06T10:41:37.801Z,21.64
2023-05-06T10:44:12.923Z,21.61
2023-05-06T10:47:08.662Z,21.60
2023-05-06T10:49:41.645Z,21.62
2023-05-06T10:52:24.870Z,21.66
2023-05-06T10:54:56.843Z,21.68
2023-05-06T10:57:44.792Z,21.73
2023-05-06T11:00:16.691Z,21.79
2023-05-06T11:03:06.973Z,21.84
2023-05-06T11:05:48.833Z,21.88
2023-05-06T11:08:25.690Z,21.91
2023-05-06T11:10:58.129Z,21.90
2023-05-06T11:13:36.737Z,21.91
2023-05-06T11:16:10.651Z,21.92
2023-05-06T11:18:44.802Z,21.99
2023-05-06T11:22:02.285Z,22.06
2023-05-06T11:24:53.796Z,22.10
2023-05-06T11:27:33.764Z,22.17
2023-05-06T11:30:06.185Z,22.24
2023-05-06T11:32:43.209Z,22.31
2023-05-06T11:35:29.693Z,22.40
2023-05-06T11:38:04.179Z,22.51
2023-05-06T11:40:34.816Z,22.62
2023-05-06T11:43:14.605Z,22.68
2023-05-06T11:45:46.664Z,22.78
2023-05-06T11:48:17.446Z,22.88
2023-05-06T11:50:47.611Z,22.99
2023-05-06T11:53:19.441Z,23.02
2023-05-06T11:55:54.283Z,23.03
2023-05-06T11:58:27.296Z,23.01
2023-05-06T12:00:59.489Z,23.06
2023-05-06T12:03:30.853Z,23.19
2023-05-06T12:06:01.395Z,23.31
2023-05-06T12:08:33.114Z,23.45
2023-05-06T12:11:06.606Z,23.60
2023-05-06T12:13:37.231Z,23.76
2023-05-06T12:16:09.252Z,23.93
2023-05-06T12:18:48.174Z,24.08
2023-05-06T12:21:23.998Z,24.22
2023-05-06T12:23:55.392Z,24.40
2023-05-06T12:26:26.957Z,24.55
2023-05-06T12:29:07.697Z,24.70
2023-05-06T12:31:37.063Z,24.87
2023-05-06T12:34:06.733Z,25.03
2023-05-06T12:36:40.645Z,25.29
2023-05-06T12:39:12.140Z,25.70
2023-05-06T12:41:43.438Z,25.94
2023-05-06T12:44:32.353Z,26.06
2023-05-06T12:47:03.422Z,26.11
2023-05-06T12:49:54.628Z,26.29
2023-05-06T12:52:28.185Z,26.58
2023-05-06T12:54:57.648Z,26.80
2023-05-06T12:57:27.066Z,26.99
2023-05-06T12:59:56.236Z,27.21
2023-05-06T13:02:25.620Z,27.29
2023-05-06T13:04:56.137Z,27.42
2023-05-06T13:07:25.406Z,27.50
2023-05-06T13:09:55.030Z,27.75
2023-05-06T13:12:25.230Z,27.98
2023-05-06T13:14:55.664Z,28.08
2023-05-06T13:17:26.008Z,28.41
2023-05-06T13:19:58.584Z,28.61
2023-05-06T13:22:28.053Z,28.59
2023-05-06T13:24:57.400Z,28.38
2023-05-06T13:27:29.353Z,28.41
2023-05-06T13:29:59.429Z,28.58
2023-05-06T13:32:28.849Z,28.89
2023-05-06T13:34:58.100Z,29.20
2023-05-06T13:37:27.689Z,29.48
2023-05-06T13:39:56.988Z,29.62
2023-05-06T13:42:26.418Z,29.54
2023-05-06T13:44:55.621Z,29.30
2023-05-06T13:47:26.351Z,29.10
2023-05-06T13:49:56.309Z,29.23
2023-05-06T13:52:25.462Z,29.40
2023-05-06T13:54:56.304Z,29.63
2023-05-06T13:57:25.927Z,29.89
2023-05-06T13:59:55.306Z,29.98
2023-05-06T14:02:26.769Z,29.98
2023-05-06T14:04:56.088Z,29.91
2023-05-06T14:07:25.416Z,30.06
2023-05-06T14:09:55.194Z,30.37
2023-05-06T14:12:25.388Z,30.54
2023-05-06T14:14:56.581Z,30.84
2023-05-06T14:17:25.908Z,31.04
2023-05-06T14:19:55.353Z,31.17
2023-05-06T14:22:25.863Z,31.16
2023-05-06T14:24:55.821Z,31.31
2023-05-06T14:27:26.662Z,31.53
2023-05-06T14:29:55.887Z,31.61
2023-05-06T14:32:25.653Z,31.40
2023-05-06T14:34:55.930Z,31.20
2023-05-06T14:37:25.992Z,30.93
2023-05-06T14:39:57.105Z,30.59
2023-05-06T14:42:26.603Z,30.47
2023-05-06T14:44:55.630Z,30.48
2023-05-06T14:47:26.034Z,30.41
2023-05-06T14:49:55.828Z,30.43
2023-05-06T14:52:25.817Z,30.55
2023-05-06T14:54:56.176Z,30.60
2023-05-06T14:57:25.805Z,30.70
2023-05-06T14:59:55.897Z,30.84
2023-05-06T15:02:26.560Z,30.92
2023-05-06T15:04:55.780Z,30.91
2023-05-06T15:07:26.989Z,30.92
2023-05-06T15:09:56.474Z,31.02
2023-05-06T15:12:26.001Z,30.87
2023-05-06T15:14:56.065Z,30.74
2023-05-06T15:17:27.037Z,30.76
2023-05-06T15:19:56.355Z,30.79
2023-05-06T15:22:26.603Z,30.81
2023-05-06T15:24:55.998Z,30.83
2023-05-06T15:27:26.837Z,30.73
2023-05-06T15:29:56.286Z,30.61
2023-05-06T15:32:27.411Z,30.52
2023-05-06T15:34:57.929Z,30.41
2023-05-06T15:37:27.084Z,30.36
2023-05-06T15:39:57.092Z,30.38
2023-05-06T15:42:26.679Z,30.37
2023-05-06T15:44:57.699Z,30.30
2023-05-06T15:47:26.865Z,30.09
2023-05-06T15:49:56.764Z,29.95
2023-05-06T15:52:26.232Z,29.85
2023-05-06T15:54:59.408Z,29.75
2023-05-06T15:57:31.237Z,29.60
2023-05-06T16:00:00.353Z,29.50
2023-05-06T16:02:29.692Z,29.39
2023-05-06T16:04:59.387Z,29.21
2023-05-06T16:07:29.314Z,29.07
2023-05-06T16:09:58.448Z,29.01
2023-05-06T16:12:31.527Z,28.99
2023-05-06T16:15:00.828Z,28.96
2023-05-06T16:17:30.608Z,28.86
2023-05-06T16:20:00.247Z,28.76
2023-05-06T16:22:29.390Z,28.49
2023-05-06T16:24:58.683Z,28.27
2023-05-06T16:27:28.423Z,28.06
2023-05-06T16:29:57.453Z,27.87
2023-05-06T16:32:27.044Z,27.69
2023-05-06T16:34:56.508Z,27.54
2023-05-06T16:37:27.921Z,27.35
2023-05-06T16:39:57.441Z,27.16
2023-05-06T16:42:26.703Z,26.93
2023-05-06T16:44:57.297Z,26.66
2023-05-06T16:47:28.008Z,26.43
2023-05-06T16:49:58.732Z,26.27
2023-05-06T16:52:30.058Z,26.08
2023-05-06T16:55:00.172Z,25.85
2023-05-06T16:57:29.665Z,25.60
2023-05-06T16:59:59.128Z,25.36
2023-05-06T17:02:28.495Z,25.12
2023-05-06T17:04:57.956Z,24.94
2023-05-06T17:07:27.058Z,24.82
2023-05-06T17:09:56.755Z,24.61
2023-05-06T17:12:27.632Z,24.46
2023-05-06T17:14:56.957Z,24.28
2023-05-06T17:17:28.450Z,24.07
2023-05-06T17:19:58.284Z,23.92
2023-05-06T17:22:27.876Z,23.81
2023-05-06T17:24:57.412Z,23.67
2023-05-06T17:27:27.057Z,23.49
2023-05-06T17:29:56.743Z,23.32
2023-05-06T17:32:27.034Z,23.18
2023-05-06T17:34:56.881Z,23.06
2023-05-06T17:37:28.244Z,22.99
2023-05-06T17:39:57.444Z,22.90
2023-05-06T17:42:27.308Z,22.83
2023-05-06T17:44:56.918Z,22.72
2023-05-06T17:47:29.336Z,22.60
2023-05-06T17:49:59.118Z,22.47
2023-05-06T17:52:28.224Z,22.36
2023-05-06T17:55:23.376Z,22.28
2023-05-06T17:57:47.560Z,22.19
2023-05-06T18:00:18.004Z,22.10
2023-05-06T18:02:47.638Z,22.04
2023-05-06T18:05:17.250Z,21.97
2023-05-06T18:07:48.999Z,21.89
2023-05-06T18:10:19.841Z,21.84
2023-05-06T18:12:54.162Z,21.79
2023-05-06T18:15:24.685Z,21.74
2023-05-06T18:17:55.138Z,21.69
2023-05-06T18:20:25.460Z,21.63
2023-05-06T18:22:58.091Z,21.57
2023-05-06T18:25:29.013Z,21.51
2023-05-06T18:27:58.851Z,21.48
2023-05-06T18:30:28.167Z,21.43
2023-05-06T18:32:57.649Z,21.39
2023-05-06T18:35:27.513Z,21.36
2023-05-06T18:37:58.229Z,21.32
2023-05-06T18:40:27.611Z,21.26
2023-05-06T18:42:58.204Z,21.22
2023-05-06T18:45:27.602Z,21.19
2023-05-06T18:47:57.121Z,21.14
2023-05-06T18:50:27.434Z,21.07
2023-05-06T18:52:59.464Z,21.04
2023-05-06T18:55:29.478Z,21.02
2023-05-06T18:57:58.714Z,20.98
2023-05-06T19:00:28.720Z,20.93
2023-05-06T19:02:58.451Z,20.86
2023-05-06T19:05:28.003Z,20.78
2023-05-06T19:07:58.432Z,20.73
2023-05-06T19:10:31.469Z,20.70
2023-05-06T19:13:03.937Z,20.66
2023-05-06T19:15:38.641Z,20.62
2023-05-06T19:18:09.777Z,20.59
2023-05-06T19:20:41.763Z,20.55
2023-05-06T19:23:12.184Z,20.50
2023-05-06T19:25:46.923Z,20.46
2023-05-06T19:28:29.325Z,20.43
2023-05-06T19:31:12.836Z,20.38
2023-05-06T19:34:06.350Z,20.35
2023-05-06T19:36:37.880Z,20.33
2023-05-06T19:39:16.373Z,20.31
2023-05-06T19:41:54.862Z,20.28
2023-05-06T19:44:28.461Z,20.26
2023-05-06T19:46:59.168Z,20.24
2023-05-06T19:49:31.942Z,20.23
2023-05-06T19:52:06.175Z,20.22
2023-05-06T19:54:35.795Z,20.17
2023-05-06T19:57:05.270Z,20.11
2023-05-06T19:59:35.501Z,20.06
2023-05-06T20:02:09.678Z,20.00
2023-05-06T20:04:40.236Z,19.95
2023-05-06T20:07:13.517Z,19.92
2023-05-06T20:09:43.349Z,19.89
2023-05-06T20:12:13.561Z,19.84
2023-05-06T20:14:44.866Z,19.78
2023-05-06T20:17:16.950Z,19.73
2023-05-06T20:19:50.103Z,19.69
2023-05-06T20:22:20.378Z,19.62
2023-05-06T20:24:52.777Z,19.58
2023-05-06T20:27:36.845Z,19.52
2023-05-06T20:30:09.870Z,19.49
2023-05-06T20:32:42.078Z,19.45
2023-05-06T20:35:11.979Z,19.41
2023-05-06T20:37:48.481Z,19.33
2023-05-06T20:40:18.340Z,19.30
2023-05-06T20:42:47.240Z,19.27
2023-05-06T20:45:17.478Z,19.22
2023-05-06T20:47:47.385Z,19.19
2023-05-06T20:50:18.116Z,19.15
2023-05-06T20:53:00.440Z,19.11
2023-05-06T20:55:32.407Z,19.09
2023-05-06T20:58:00.676Z,19.07
2023-05-06T21:00:29.557Z,19.05
2023-05-06T21:02:58.001Z,19.05
2023-05-06T21:05:27.641Z,19.06
2023-05-06T21:07:57.880Z,19.08
2023-05-06T21:10:27.878Z,19.06
2023-05-06T21:12:56.985Z,19.01
2023-05-06T21:15:26.483Z,19.00
2023-05-06T21:17:57.058Z,19.00
2023-05-06T21:20:27.925Z,19.00
2023-05-06T21:22:58.348Z,18.99
2023-05-06T21:25:28.746Z,18.98
2023-05-06T21:27:58.074Z,18.97
2023-05-06T21:30:29.261Z,18.94
2023-05-06T21:32:57.321Z,18.92
2023-05-06T21:35:27.518Z,18.92
2023-05-06T21:37:59.641Z,18.91
2023-05-06T21:40:39.319Z,18.89
2023-05-06T21:43:12.009Z,18.86
2023-05-06T21:45:45.770Z,18.84
2023-05-06T21:48:16.393Z,18.84
2023-05-06T21:50:46.835Z,18.84
2023-05-06T21:53:15.028Z,18.85
2023-05-06T21:55:43.410Z,18.85
2023-05-06T21:58:11.546Z,18.85
2023-05-06T22:00:39.650Z,18.82
2023-05-06T22:03:08.659Z,18.80
2023-05-06T22:05:38.619Z,18.80
2023-05-06T22:08:07.021Z,18.76
2023-05-06T22:10:36.758Z,18.74
2023-05-06T22:13:04.987Z,18.73
2023-05-06T22:15:33.501Z,18.71
2023-05-06T22:18:02.376Z,18.69
2023-05-06T22:20:32.381Z,18.64
2023-05-06T22:23:00.702Z,18.61
2023-05-06T22:25:28.921Z,18.56
2023-05-06T22:27:57.768Z,18.52
2023-05-06T22:30:26.807Z,18.44
2023-05-06T22:32:56.555Z,18.41
2023-05-06T22:35:26.475Z,18.39
2023-05-06T22:37:56.024Z,18.36
2023-05-06T22:40:27.425Z,18.37
2023-05-06T22:42:57.533Z,18.37
2023-05-06T22:45:27.351Z,18.38
2023-05-06T22:48:00.249Z,18.34
2023-05-06T22:50:29.190Z,18.31
2023-05-06T22:52:57.969Z,18.27
2023-05-06T22:55:27.162Z,18.24
2023-05-06T22:57:56.106Z,18.21
2023-05-06T23:00:24.437Z,18.19
2023-05-06T23:02:54.101Z,18.16
2023-05-06T23:05:23.340Z,18.14
2023-05-06T23:07:51.546Z,18.08
2023-05-06T23:10:20.321Z,18.04
2023-05-06T23:12:49.520Z,18.01
2023-05-06T23:15:17.830Z,17.97
2023-05-06T23:17:47.391Z,17.93
2023-05-06T23:20:16.585Z,17.91
2023-05-06T23:22:44.963Z,17.89
2023-05-06T23:25:13.393Z,17.83
2023-05-06T23:27:42.701Z,17.79
2023-05-06T23:30:11.976Z,17.76
2023-05-06T23:32:40.390Z,17.74
2023-05-06T23:35:09.420Z,17.70
2023-05-06T23:37:39.378Z,17.66
2023-05-06T23:40:12.973Z,17.61
2023-05-06T23:42:43.034Z,17.52
2023-05-06T23:45:15.096Z,17.43
2023-05-06T23:47:48.597Z,17.30
2023-05-06T23:50:17.535Z,17.16
2023-05-06T23:52:47.202Z,17.01
2023-05-06T23:55:21.023Z,16.93
2023-05-06T23:57:50.916Z,16.84
